Time;durP1;ratioP1;P1;durP2;ratioP2;P2;SDS_P1;SDS_P2;PMS_P1;PMS_P2;Temp;Humidity;BMP_temperature;BMP_pressure;BME280_temperature;BME280_humidity;BME280_pressure;Samples;Min_cycle;Max_cycle;Signal;HPM_P1;HPM_P2
2020/10/26 00:02:44;;;;;;;1.68;1.58;;;;;;;20.23;60.44;99236.61;;;;-52
2020/10/26 00:05:44;;;;;;;1.74;1.64;;;;;;;20.23;60.49;99232.30;;;;-51
2020/10/26 00:08:44;;;;;;;1.93;1.77;;;;;;;20.22;60.54;99239.63;;;;-51
2020/10/26 00:11:44;;;;;;;1.80;1.70;;;;;;;20.21;60.55;99247.53;;;;-52
2020/10/26 00:14:44;;;;;;;1.66;1.56;;;;;;;20.20;60.58;99260.42;;;;-53
2020/10/26 00:17:44;;;;;;;1.98;1.53;;;;;;;20.19;60.65;99267.41;;;;-52
2020/10/26 00:20:44;;;;;;;1.74;1.64;;;;;;;20.18;60.62;99266.63;;;;-52
2020/10/26 00:23:44;;;;;;;1.87;1.57;;;;;;;20.16;60.64;99264.61;;;;-52
2020/10/26 00:26:44;;;;;;;2.00;1.80;;;;;;;20.16;60.62;99273.73;;;;-52
2020/10/26 00:29:44;;;;;;;1.84;1.70;;;;;;;20.15;60.64;99275.84;;;;-52
2020/10/26 00:32:44;;;;;;;1.81;1.71;;;;;;;20.14;60.71;99275.95;;;;-52
2020/10/26 00:35:44;;;;;;;1.75;1.63;;;;;;;20.13;60.63;99272.56;;;;-52
2020/10/26 00:38:44;;;;;;;1.79;1.69;;;;;;;20.13;60.65;99261.41;;;;-52
2020/10/26 00:41:44;;;;;;;2.31;1.63;;;;;;;20.12;60.66;99255.25;;;;-53
2020/10/26 00:44:44;;;;;;;1.69;1.59;;;;;;;20.10;60.70;99252.52;;;;-52
2020/10/26 00:47:44;;;;;;;1.91;1.71;;;;;;;20.09;60.65;99245.72;;;;-52
2020/10/26 00:50:44;;;;;;;1.75;1.63;;;;;;;20.09;60.66;99244.91;;;;-52
2020/10/26 00:53:44;;;;;;;1.71;1.61;;;;;;;20.08;60.60;99243.75;;;;-52
2020/10/26 00:56:44;;;;;;;1.59;1.49;;;;;;;20.07;60.66;99240.38;;;;-52
2020/10/26 00:59:44;;;;;;;1.92;1.70;;;;;;;20.06;60.68;99229.80;;;;-52
2020/10/26 01:02:44;;;;;;;1.75;1.65;;;;;;;20.05;60.69;99224.53;;;;-52
2020/10/26 01:05:44;;;;;;;1.80;1.70;;;;;;;20.03;60.71;99222.05;;;;-53
2020/10/26 01:08:44;;;;;;;1.79;1.63;;;;;;;20.04;60.73;99230.81;;;;-53
2020/10/26 01:11:44;;;;;;;1.70;1.59;;;;;;;20.03;60.76;99228.25;;;;-53
2020/10/26 01:14:44;;;;;;;1.70;1.60;;;;;;;20.02;60.76;99223.84;;;;-53
2020/10/26 01:17:44;;;;;;;1.83;1.60;;;;;;;20.01;60.73;99213.14;;;;-53
2020/10/26 01:20:44;;;;;;;1.79;1.62;;;;;;;20.00;60.78;99210.45;;;;-53
2020/10/26 01:23:44;;;;;;;1.81;1.71;;;;;;;19.99;60.79;99216.82;;;;-50
2020/10/26 01:26:44;;;;;;;1.75;1.59;;;;;;;19.99;60.80;99210.00;;;;-50
2020/10/26 01:29:44;;;;;;;1.65;1.55;;;;;;;19.98;60.76;99207.55;;;;-50
2020/10/26 01:32:44;;;;;;;1.74;1.64;;;;;;;19.97;60.84;99206.38;;;;-50
2020/10/26 01:35:44;;;;;;;1.78;1.59;;;;;;;19.96;60.87;99205.47;;;;-50
2020/10/26 01:38:44;;;;;;;1.61;1.51;;;;;;;19.95;60.82;99208.36;;;;-50
2020/10/26 01:41:44;;;;;;;1.79;1.69;;;;;;;19.95;60.87;99212.19;;;;-50
2020/10/26 01:44:44;;;;;;;1.72;1.62;;;;;;;19.93;60.81;99211.71;;;;-50
2020/10/26 01:47:44;;;;;;;2.91;1.59;;;;;;;19.93;60.86;99214.00;;;;-50
2020/10/26 01:50:44;;;;;;;1.92;1.75;;;;;;;19.93;60.89;99211.89;;;;-50
2020/10/26 01:53:44;;;;;;;1.81;1.71;;;;;;;19.92;60.92;99208.06;;;;-53
2020/10/26 01:56:44;;;;;;;1.71;1.61;;;;;;;19.91;60.88;99208.09;;;;-53
2020/10/26 01:59:44;;;;;;;1.67;1.57;;;;;;;19.89;60.90;99213.15;;;;-53
2020/10/26 02:02:44;;;;;;;1.65;1.55;;;;;;;19.89;60.95;99212.50;;;;-52
2020/10/26 02:05:44;;;;;;;1.70;1.60;;;;;;;19.89;60.92;99220.97;;;;-53
2020/10/26 02:08:44;;;;;;;1.59;1.49;;;;;;;19.88;60.96;99221.39;;;;-53
2020/10/26 02:11:44;;;;;;;1.71;1.61;;;;;;;19.88;60.90;99230.33;;;;-53
2020/10/26 02:14:44;;;;;;;1.78;1.66;;;;;;;19.88;60.91;99234.79;;;;-53
2020/10/26 02:17:44;;;;;;;1.73;1.63;;;;;;;19.87;60.95;99236.34;;;;-53
2020/10/26 02:20:44;;;;;;;1.81;1.70;;;;;;;19.87;60.94;99239.05;;;;-53
2020/10/26 02:23:44;;;;;;;1.82;1.72;;;;;;;19.86;60.91;99241.59;;;;-53
2020/10/26 02:26:44;;;;;;;1.92;1.59;;;;;;;19.84;60.95;99245.34;;;;-53
2020/10/26 02:29:44;;;;;;;1.65;1.55;;;;;;;19.85;60.92;99250.13;;;;-53
2020/10/26 02:32:44;;;;;;;1.71;1.60;;;;;;;19.84;60.91;99249.27;;;;-52
2020/10/26 02:35:44;;;;;;;1.64;1.54;;;;;;;19.84;60.95;99239.18;;;;-53
2020/10/26 02:38:44;;;;;;;1.60;1.50;;;;;;;19.83;61.00;99247.13;;;;-53
2020/10/26 02:41:44;;;;;;;1.61;1.51;;;;;;;19.83;61.02;99251.46;;;;-53
2020/10/26 02:44:44;;;;;;;1.62;1.52;;;;;;;19.82;61.01;99254.16;;;;-53
2020/10/26 02:47:44;;;;;;;1.84;1.59;;;;;;;19.82;60.98;99244.31;;;;-52
2020/10/26 02:50:44;;;;;;;1.72;1.62;;;;;;;19.81;60.99;99237.17;;;;-53
2020/10/26 02:53:44;;;;;;;1.58;1.48;;;;;;;19.80;60.95;99228.91;;;;-53
2020/10/26 02:56:44;;;;;;;1.53;1.43;;;;;;;19.80;61.02;99216.95;;;;-53
2020/10/26 02:59:44;;;;;;;1.62;1.52;;;;;;;19.79;60.99;99210.69;;;;-50
2020/10/26 03:02:44;;;;;;;1.87;1.67;;;;;;;19.79;60.99;99207.22;;;;-50
2020/10/26 03:05:44;;;;;;;1.74;1.60;;;;;;;19.78;60.96;99203.56;;;;-50
2020/10/26 03:08:44;;;;;;;1.70;1.60;;;;;;;19.77;60.96;99193.00;;;;-50
2020/10/26 03:11:44;;;;;;;1.71;1.61;;;;;;;19.77;60.98;99197.55;;;;-50
2020/10/26 03:14:44;;;;;;;1.57;1.47;;;;;;;19.77;61.05;99203.33;;;;-50
2020/10/26 03:17:44;;;;;;;1.70;1.60;;;;;;;19.76;61.02;99205.47;;;;-50
2020/10/26 03:20:44;;;;;;;1.66;1.56;;;;;;;19.76;61.01;99195.14;;;;-50
2020/10/26 03:23:44;;;;;;;1.65;1.55;;;;;;;19.75;61.02;99189.94;;;;-50
2020/10/26 03:26:44;;;;;;;1.71;1.61;;;;;;;19.75;61.03;99191.66;;;;-50
2020/10/26 03:29:44;;;;;;;1.56;1.46;;;;;;;19.75;61.03;99177.69;;;;-50
2020/10/26 03:32:44;;;;;;;1.89;1.59;;;;;;;19.74;61.01;99158.94;;;;-50
2020/10/26 03:35:44;;;;;;;1.67;1.57;;;;;;;19.74;61.01;99162.66;;;;-53
2020/10/26 03:38:44;;;;;;;1.77;1.67;;;;;;;19.73;60.99;99158.69;;;;-53
2020/10/26 03:41:44;;;;;;;1.62;1.52;;;;;;;19.73;61.05;99163.39;;;;-53
2020/10/26 03:44:44;;;;;;;2.16;1.50;;;;;;;19.73;61.05;99170.08;;;;-53
2020/10/26 03:47:44;;;;;;;1.63;1.53;;;;;;;19.72;61.07;99163.91;;;;-53
2020/10/26 03:50:44;;;;;;;1.72;1.62;;;;;;;19.71;61.06;99148.70;;;;-53
2020/10/26 03:53:44;;;;;;;1.69;1.59;;;;;;;19.71;60.97;99142.80;;;;-52
2020/10/26 03:56:44;;;;;;;1.60;1.50;;;;;;;19.71;61.09;99141.02;;;;-53
2020/10/26 03:59:44;;;;;;;1.68;1.50;;;;;;;19.70;61.06;99144.83;;;;-53
2020/10/26 04:02:51;;;;;;;1.64;1.54;;;;;;;19.70;61.03;99146.20;;;;-53
2020/10/26 04:05:44;;;;;;;1.71;1.61;;;;;;;19.68;61.04;99142.97;;;;-52
2020/10/26 04:08:44;;;;;;;1.50;1.40;;;;;;;19.68;61.11;99135.97;;;;-52
2020/10/26 04:11:44;;;;;;;1.73;1.63;;;;;;;19.68;61.14;99142.16;;;;-52
2020/10/26 04:14:44;;;;;;;1.69;1.59;;;;;;;19.67;61.08;99138.20;;;;-52
2020/10/26 04:17:44;;;;;;;2.07;1.40;;;;;;;19.67;61.06;99139.16;;;;-52
2020/10/26 04:20:44;;;;;;;1.51;1.37;;;;;;;19.67;61.12;99147.20;;;;-52
2020/10/26 04:23:44;;;;;;;1.81;1.71;;;;;;;19.66;61.06;99139.74;;;;-52
2020/10/26 04:26:44;;;;;;;1.71;1.61;;;;;;;19.66;61.12;99139.92;;;;-52
2020/10/26 04:29:44;;;;;;;1.67;1.55;;;;;;;19.65;61.08;99141.89;;;;-53
2020/10/26 04:32:44;;;;;;;1.62;1.52;;;;;;;19.65;61.17;99132.95;;;;-53
2020/10/26 04:35:44;;;;;;;1.67;1.57;;;;;;;19.64;61.07;99126.53;;;;-53
2020/10/26 04:38:44;;;;;;;1.69;1.59;;;;;;;19.65;61.08;99116.77;;;;-53
2020/10/26 04:41:44;;;;;;;1.65;1.55;;;;;;;19.63;61.15;99107.63;;;;-53
2020/10/26 04:44:44;;;;;;;1.43;1.33;;;;;;;19.63;61.17;99092.66;;;;-53
2020/10/26 04:47:44;;;;;;;1.60;1.50;;;;;;;19.63;61.13;99083.23;;;;-53
2020/10/26 04:50:44;;;;;;;1.60;1.50;;;;;;;19.62;61.19;99077.09;;;;-53
2020/10/26 04:53:44;;;;;;;1.70;1.60;;;;;;;19.62;61.23;99078.64;;;;-52
2020/10/26 04:56:44;;;;;;;1.73;1.63;;;;;;;19.62;61.15;99075.23;;;;-52
2020/10/26 04:59:44;;;;;;;1.60;1.50;;;;;;;19.61;61.24;99074.16;;;;-52
2020/10/26 05:02:44;;;;;;;1.55;1.45;;;;;;;19.60;61.25;99093.84;;;;-52
2020/10/26 05:05:44;;;;;;;1.57;1.47;;;;;;;19.60;61.14;99111.41;;;;-52
2020/10/26 05:08:44;;;;;;;1.61;1.51;;;;;;;19.59;61.19;99116.30;;;;-52
2020/10/26 05:11:44;;;;;;;1.65;1.55;;;;;;;19.59;61.21;99114.59;;;;-52
2020/10/26 05:14:44;;;;;;;1.51;1.41;;;;;;;19.59;61.12;99104.20;;;;-52
2020/10/26 05:17:44;;;;;;;1.59;1.49;;;;;;;19.58;61.23;99110.69;;;;-52
2020/10/26 05:20:44;;;;;;;1.53;1.43;;;;;;;19.58;61.19;99122.17;;;;-50
2020/10/26 05:23:44;;;;;;;1.60;1.50;;;;;;;19.58;61.31;99128.58;;;;-50
2020/10/26 05:26:44;;;;;;;1.52;1.42;;;;;;;19.58;61.25;99132.72;;;;-50
2020/10/26 05:29:44;;;;;;;1.62;1.52;;;;;;;19.58;61.21;99136.63;;;;-50
2020/10/26 05:32:44;;;;;;;1.55;1.45;;;;;;;19.57;61.14;99151.92;;;;-52
2020/10/26 05:35:44;;;;;;;1.59;1.49;;;;;;;19.57;61.25;99161.98;;;;-52
2020/10/26 05:38:44;;;;;;;1.63;1.53;;;;;;;19.56;61.27;99169.24;;;;-52
2020/10/26 05:41:44;;;;;;;1.65;1.55;;;;;;;19.56;61.28;99178.34;;;;-52
2020/10/26 05:44:44;;;;;;;1.57;1.47;;;;;;;19.56;61.26;99195.97;;;;-52
2020/10/26 05:47:44;;;;;;;1.53;1.43;;;;;;;19.56;61.25;99203.63;;;;-52
2020/10/26 05:50:44;;;;;;;1.61;1.51;;;;;;;19.55;61.30;99203.63;;;;-52
2020/10/26 05:53:44;;;;;;;1.58;1.48;;;;;;;19.55;61.33;99207.38;;;;-53
2020/10/26 05:56:44;;;;;;;1.60;1.50;;;;;;;19.54;61.23;99210.86;;;;-53
2020/10/26 05:59:44;;;;;;;1.50;1.40;;;;;;;19.54;61.24;99204.78;;;;-50
2020/10/26 06:02:44;;;;;;;1.46;1.36;;;;;;;19.54;61.35;99211.77;;;;-49
2020/10/26 06:05:44;;;;;;;1.60;1.50;;;;;;;19.54;61.33;99208.52;;;;-50
2020/10/26 06:08:44;;;;;;;1.60;1.50;;;;;;;19.54;61.28;99222.66;;;;-50
2020/10/26 06:11:44;;;;;;;1.59;1.46;;;;;;;19.54;61.21;99232.58;;;;-50
2020/10/26 06:14:44;;;;;;;1.50;1.40;;;;;;;19.53;61.31;99234.36;;;;-52
2020/10/26 06:17:44;;;;;;;1.61;1.51;;;;;;;19.53;61.27;99236.42;;;;-49
2020/10/26 06:20:44;;;;;;;1.60;1.50;;;;;;;19.53;61.21;99239.72;;;;-50
2020/10/26 06:23:44;;;;;;;1.60;1.50;;;;;;;19.53;61.32;99243.73;;;;-50
2020/10/26 06:26:44;;;;;;;1.60;1.50;;;;;;;19.53;61.27;99247.29;;;;-50
2020/10/26 06:29:44;;;;;;;1.49;1.39;;;;;;;19.53;61.20;99253.48;;;;-50
2020/10/26 06:32:44;;;;;;;1.57;1.47;;;;;;;19.52;61.28;99255.02;;;;-50
2020/10/26 06:35:44;;;;;;;1.43;1.33;;;;;;;19.53;61.23;99256.48;;;;-50
2020/10/26 06:38:44;;;;;;;1.50;1.40;;;;;;;19.52;61.22;99257.36;;;;-49
2020/10/26 06:41:44;;;;;;;1.50;1.40;;;;;;;19.52;61.24;99257.55;;;;-50
2020/10/26 06:44:44;;;;;;;1.57;1.47;;;;;;;19.52;61.23;99250.95;;;;-50
2020/10/26 06:47:44;;;;;;;1.50;1.40;;;;;;;19.52;61.24;99255.91;;;;-50
2020/10/26 06:50:44;;;;;;;1.66;1.51;;;;;;;19.52;61.34;99261.84;;;;-50
2020/10/26 06:53:44;;;;;;;1.73;1.50;;;;;;;19.53;61.28;99261.52;;;;-50
2020/10/26 06:56:44;;;;;;;1.50;1.40;;;;;;;19.53;61.35;99257.55;;;;-50
2020/10/26 06:59:44;;;;;;;1.51;1.41;;;;;;;19.53;61.20;99258.83;;;;-50
2020/10/26 07:02:44;;;;;;;1.43;1.33;;;;;;;19.54;61.30;99265.31;;;;-50
2020/10/26 07:05:44;;;;;;;1.62;1.52;;;;;;;19.54;61.27;99278.39;;;;-50
2020/10/26 07:08:44;;;;;;;1.64;1.40;;;;;;;19.54;61.28;99286.27;;;;-50
2020/10/26 07:11:44;;;;;;;1.41;1.31;;;;;;;19.55;61.24;99286.83;;;;-50
2020/10/26 07:14:44;;;;;;;1.55;1.40;;;;;;;19.55;61.18;99280.18;;;;-50
2020/10/26 07:17:44;;;;;;;1.50;1.40;;;;;;;19.56;61.26;99290.73;;;;-50
2020/10/26 07:20:44;;;;;;;1.77;1.41;;;;;;;19.56;61.14;99296.26;;;;-50
2020/10/26 07:23:44;;;;;;;1.58;1.48;;;;;;;19.55;61.25;99302.03;;;;-50
2020/10/26 07:26:49;;;;;;;1.50;1.40;;;;;;;19.56;61.22;99292.27;;;;-50
2020/10/26 07:29:44;;;;;;;1.32;1.22;;;;;;;19.57;61.21;99292.33;;;;-50
2020/10/26 07:32:44;;;;;;;1.45;1.35;;;;;;;19.57;61.27;99287.63;;;;-49
2020/10/26 07:35:44;;;;;;;1.44;1.34;;;;;;;19.57;61.13;99277.05;;;;-50
2020/10/26 07:38:44;;;;;;;1.33;1.23;;;;;;;19.57;61.25;99268.87;;;;-50
2020/10/26 07:41:47;;;;;;;1.51;1.40;;;;;;;19.57;61.20;99277.47;;;;-50
2020/10/26 07:44:44;;;;;;;1.37;1.27;;;;;;;19.58;61.25;99299.48;;;;-50
2020/10/26 07:47:44;;;;;;;1.47;1.37;;;;;;;19.58;61.28;99307.36;;;;-50
2020/10/26 07:50:44;;;;;;;1.56;1.41;;;;;;;19.58;61.26;99321.57;;;;-50
2020/10/26 07:53:44;;;;;;;1.49;1.39;;;;;;;19.58;61.23;99326.20;;;;-50
2020/10/26 07:56:44;;;;;;;1.50;1.40;;;;;;;19.59;61.19;99336.67;;;;-50
2020/10/26 07:59:44;;;;;;;1.33;1.23;;;;;;;19.59;61.25;99336.51;;;;-50
2020/10/26 08:02:44;;;;;;;1.51;1.41;;;;;;;19.58;61.19;99342.14;;;;-49
2020/10/26 08:05:44;;;;;;;1.49;1.39;;;;;;;19.59;61.17;99340.08;;;;-49
2020/10/26 08:08:44;;;;;;;1.42;1.32;;;;;;;19.58;61.19;99329.45;;;;-50
2020/10/26 08:11:44;;;;;;;1.50;1.40;;;;;;;19.58;61.17;99320.76;;;;-50
2020/10/26 08:14:44;;;;;;;1.51;1.41;;;;;;;19.58;61.24;99305.06;;;;-50
2020/10/26 08:17:44;;;;;;;1.40;1.30;;;;;;;19.59;61.27;99295.39;;;;-49
2020/10/26 08:20:44;;;;;;;2.40;1.48;;;;;;;19.59;61.12;99299.72;;;;-50
2020/10/26 08:23:44;;;;;;;1.44;1.34;;;;;;;19.59;61.19;99315.32;;;;-50
2020/10/26 08:26:44;;;;;;;1.50;1.40;;;;;;;19.59;61.25;99328.06;;;;-50
2020/10/26 08:29:44;;;;;;;1.40;1.30;;;;;;;19.59;61.25;99339.45;;;;-50
2020/10/26 08:32:44;;;;;;;1.40;1.30;;;;;;;19.59;61.17;99353.36;;;;-50
2020/10/26 08:35:44;;;;;;;1.41;1.31;;;;;;;19.59;61.18;99359.77;;;;-50
2020/10/26 08:38:44;;;;;;;1.42;1.32;;;;;;;19.59;61.20;99354.73;;;;-50
2020/10/26 08:41:44;;;;;;;1.45;1.35;;;;;;;19.59;61.19;99359.05;;;;-50
2020/10/26 08:44:44;;;;;;;1.55;1.45;;;;;;;19.59;61.19;99363.97;;;;-50
2020/10/26 08:47:44;;;;;;;1.57;1.47;;;;;;;19.58;61.15;99365.69;;;;-50
2020/10/26 08:50:44;;;;;;;2.22;1.36;;;;;;;19.59;61.30;99360.25;;;;-46
2020/10/26 08:53:44;;;;;;;1.87;1.40;;;;;;;19.49;60.85;99365.72;;;;-50
2020/10/26 08:56:44;;;;;;;2.19;1.41;;;;;;;19.38;60.88;99369.34;;;;-47
2020/10/26 08:59:44;;;;;;;1.63;1.29;;;;;;;19.30;60.90;99378.29;;;;-58
2020/10/26 09:02:44;;;;;;;5.68;1.58;;;;;;;19.35;61.02;99374.65;;;;-61
2020/10/26 09:05:44;;;;;;;5.19;1.56;;;;;;;19.40;61.35;99375.64;;;;-47
2020/10/26 09:08:44;;;;;;;2.67;1.43;;;;;;;19.45;61.50;99377.48;;;;-49
2020/10/26 09:11:44;;;;;;;3.36;1.30;;;;;;;19.48;61.55;99383.68;;;;-48
2020/10/26 09:14:44;;;;;;;2.69;1.40;;;;;;;19.52;61.53;99374.86;;;;-61
2020/10/26 09:17:44;;;;;;;1.45;1.27;;;;;;;19.54;61.58;99378.27;;;;-61
2020/10/26 09:20:44;;;;;;;1.97;1.39;;;;;;;19.56;61.64;99371.41;;;;-50
2020/10/26 09:23:44;;;;;;;3.28;1.38;;;;;;;19.57;61.67;99370.52;;;;-58
2020/10/26 09:26:44;;;;;;;2.76;1.22;;;;;;;19.59;61.78;99368.55;;;;-54
2020/10/26 09:29:44;;;;;;;2.02;1.21;;;;;;;19.61;61.68;99375.09;;;;-59
2020/10/26 09:32:44;;;;;;;1.33;1.23;;;;;;;19.62;61.70;99379.06;;;;-59
2020/10/26 09:35:44;;;;;;;1.93;1.44;;;;;;;19.64;61.71;99374.97;;;;-59
2020/10/26 09:38:44;;;;;;;1.90;1.30;;;;;;;19.66;61.66;99372.84;;;;-51
2020/10/26 09:41:44;;;;;;;2.26;1.31;;;;;;;19.67;61.68;99372.66;;;;-52
2020/10/26 09:44:44;;;;;;;2.05;1.48;;;;;;;19.65;61.53;99374.81;;;;-57
2020/10/26 09:47:44;;;;;;;1.93;1.41;;;;;;;19.69;61.69;99389.63;;;;-54
2020/10/26 09:50:44;;;;;;;1.61;1.29;;;;;;;19.69;61.71;99386.95;;;;-53
2020/10/26 09:53:44;;;;;;;1.50;1.19;;;;;;;19.73;61.80;99389.52;;;;-55
2020/10/26 09:56:44;;;;;;;2.86;1.19;;;;;;;19.76;61.66;99384.88;;;;-58
2020/10/26 09:59:44;;;;;;;3.00;1.30;;;;;;;19.79;61.68;99385.88;;;;-59
2020/10/26 10:02:44;;;;;;;1.61;1.33;;;;;;;19.83;61.64;99377.78;;;;-53
2020/10/26 10:05:44;;;;;;;2.14;1.27;;;;;;;19.86;61.31;99377.18;;;;-58
2020/10/26 10:08:44;;;;;;;2.03;1.34;;;;;;;19.90;61.29;99369.08;;;;-52
2020/10/26 10:11:44;;;;;;;1.62;1.41;;;;;;;19.93;61.38;99355.95;;;;-54
2020/10/26 10:14:44;;;;;;;2.70;1.35;;;;;;;19.96;61.45;99352.31;;;;-51
2020/10/26 10:17:44;;;;;;;2.12;1.29;;;;;;;20.01;61.39;99375.47;;;;-52
2020/10/26 10:20:44;;;;;;;1.57;1.32;;;;;;;20.04;61.24;99383.54;;;;-52
2020/10/26 10:23:44;;;;;;;2.31;1.30;;;;;;;20.07;61.26;99386.93;;;;-57
2020/10/26 10:26:45;;;;;;;3.84;1.46;;;;;;;20.10;61.23;99394.36;;;;-62
2020/10/26 10:29:44;;;;;;;1.95;1.30;;;;;;;20.13;61.30;99391.63;;;;-60
2020/10/26 10:32:44;;;;;;;2.79;1.57;;;;;;;20.14;61.22;99388.86;;;;-60
2020/10/26 10:35:44;;;;;;;1.53;1.33;;;;;;;20.16;61.31;99402.06;;;;-53
2020/10/26 10:38:44;;;;;;;4.20;1.40;;;;;;;20.19;61.66;99405.12;;;;-52
2020/10/26 10:41:44;;;;;;;3.30;1.52;;;;;;;20.21;61.11;99406.23;;;;-56
2020/10/26 10:44:44;;;;;;;2.44;1.52;;;;;;;20.22;60.79;99413.80;;;;-58
2020/10/26 10:47:44;;;;;;;4.15;1.65;;;;;;;20.23;61.13;99407.50;;;;-57
2020/10/26 10:50:44;;;;;;;5.24;1.49;;;;;;;20.26;60.21;99398.20;;;;-54
2020/10/26 10:53:44;;;;;;;5.23;1.55;;;;;;;20.30;61.05;99376.66;;;;-51
2020/10/26 10:56:44;;;;;;;5.15;1.64;;;;;;;20.34;61.11;99371.17;;;;-58
2020/10/26 10:59:44;;;;;;;6.50;1.63;;;;;;;20.37;60.93;99367.11;;;;-61
2020/10/26 11:02:44;;;;;;;3.94;1.43;;;;;;;20.39;60.90;99372.05;;;;-61
2020/10/26 11:05:44;;;;;;;2.35;1.45;;;;;;;20.39;60.82;99370.42;;;;-61
2020/10/26 11:08:44;;;;;;;3.51;1.49;;;;;;;20.41;60.54;99392.70;;;;-61
2020/10/26 11:11:44;;;;;;;2.72;1.47;;;;;;;20.41;60.33;99392.78;;;;-61
2020/10/26 11:14:44;;;;;;;2.95;1.59;;;;;;;20.42;60.32;99395.45;;;;-62
2020/10/26 11:17:44;;;;;;;2.93;1.37;;;;;;;20.44;60.15;99396.48;;;;-61
2020/10/26 11:20:44;;;;;;;1.79;1.30;;;;;;;20.44;60.17;99402.42;;;;-62
2020/10/26 11:23:44;;;;;;;2.99;1.42;;;;;;;20.46;60.26;99398.80;;;;-61
2020/10/26 11:26:44;;;;;;;2.74;1.43;;;;;;;20.47;60.00;99392.87;;;;-61
2020/10/26 11:29:44;;;;;;;4.87;1.29;;;;;;;20.47;59.97;99404.08;;;;-58
2020/10/26 11:32:44;;;;;;;2.12;1.42;;;;;;;20.49;60.07;99418.12;;;;-62
2020/10/26 11:35:44;;;;;;;2.78;1.31;;;;;;;20.50;60.00;99418.03;;;;-60
2020/10/26 11:38:44;;;;;;;2.10;1.38;;;;;;;20.51;59.75;99411.84;;;;-61
2020/10/26 11:41:44;;;;;;;3.22;1.25;;;;;;;20.51;59.86;99408.92;;;;-62
2020/10/26 11:44:44;;;;;;;1.53;1.33;;;;;;;20.52;59.72;99423.06;;;;-62
2020/10/26 11:47:44;;;;;;;1.35;1.22;;;;;;;20.53;59.73;99430.20;;;;-62
2020/10/26 11:50:44;;;;;;;1.39;1.22;;;;;;;20.54;59.76;99426.03;;;;-59
2020/10/26 11:53:44;;;;;;;1.70;1.34;;;;;;;20.55;59.46;99419.69;;;;-58
2020/10/26 11:56:44;;;;;;;1.68;1.28;;;;;;;20.55;59.69;99413.66;;;;-58
2020/10/26 11:59:44;;;;;;;4.69;1.45;;;;;;;20.55;59.95;99415.46;;;;-52
2020/10/26 12:02:44;;;;;;;3.42;1.50;;;;;;;20.56;59.93;99418.44;;;;-62
2020/10/26 12:05:44;;;;;;;3.76;1.33;;;;;;;20.58;59.81;99420.13;;;;-62
2020/10/26 12:08:44;;;;;;;2.70;1.30;;;;;;;20.60;59.89;99415.80;;;;-62
2020/10/26 12:11:44;;;;;;;2.20;1.29;;;;;;;20.61;59.89;99420.69;;;;-62
2020/10/26 12:14:44;;;;;;;4.30;1.21;;;;;;;20.62;59.94;99437.19;;;;-62
2020/10/26 12:17:44;;;;;;;1.57;1.29;;;;;;;20.63;59.91;99438.48;;;;-62
2020/10/26 12:20:44;;;;;;;1.26;1.10;;;;;;;20.64;59.83;99450.92;;;;-62
2020/10/26 12:23:44;;;;;;;1.79;1.11;;;;;;;20.64;59.70;99443.58;;;;-62
2020/10/26 12:26:44;;;;;;;1.34;1.20;;;;;;;20.65;59.76;99437.86;;;;-63
2020/10/26 12:29:44;;;;;;;1.93;1.19;;;;;;;20.65;59.74;99432.25;;;;-62
2020/10/26 12:32:44;;;;;;;1.57;1.37;;;;;;;20.66;59.68;99429.62;;;;-62
2020/10/26 12:35:44;;;;;;;1.66;1.30;;;;;;;20.66;59.74;99430.59;;;;-63
2020/10/26 12:38:44;;;;;;;1.30;1.20;;;;;;;20.67;59.72;99428.49;;;;-62
2020/10/26 12:41:44;;;;;;;1.74;1.26;;;;;;;20.68;59.67;99426.84;;;;-62
2020/10/26 12:44:44;;;;;;;1.30;1.20;;;;;;;20.68;59.64;99430.23;;;;-62
2020/10/26 12:47:44;;;;;;;1.23;1.13;;;;;;;20.69;59.62;99429.44;;;;-62
2020/10/26 12:50:44;;;;;;;1.41;1.21;;;;;;;20.69;59.63;99421.52;;;;-61
2020/10/26 12:53:44;;;;;;;1.21;1.11;;;;;;;20.69;59.64;99420.88;;;;-63
2020/10/26 12:56:44;;;;;;;1.43;1.21;;;;;;;20.69;59.62;99416.25;;;;-62
2020/10/26 12:59:44;;;;;;;1.34;1.17;;;;;;;20.69;59.58;99412.82;;;;-62
2020/10/26 13:02:44;;;;;;;1.24;1.07;;;;;;;20.70;59.56;99416.38;;;;-62
2020/10/26 13:05:44;;;;;;;1.90;1.24;;;;;;;20.70;59.56;99418.91;;;;-62
2020/10/26 13:08:44;;;;;;;1.29;1.19;;;;;;;20.70;59.58;99415.64;;;;-62
2020/10/26 13:11:44;;;;;;;1.18;1.09;;;;;;;20.71;59.59;99416.38;;;;-62
2020/10/26 13:14:44;;;;;;;1.74;1.12;;;;;;;20.72;59.57;99415.06;;;;-62
2020/10/26 13:17:44;;;;;;;4.04;1.39;;;;;;;20.72;59.31;99422.95;;;;-54
2020/10/26 13:20:44;;;;;;;3.02;1.20;;;;;;;20.71;59.46;99427.30;;;;-54
2020/10/26 13:23:44;;;;;;;2.02;1.13;;;;;;;20.70;59.27;99428.19;;;;-54
2020/10/26 13:26:44;;;;;;;5.75;1.35;;;;;;;20.71;59.53;99439.50;;;;-59
2020/10/26 13:29:44;;;;;;;1.96;1.10;;;;;;;20.73;59.93;99441.97;;;;-58
2020/10/26 13:32:45;;;;;;;1.94;1.20;;;;;;;20.75;60.07;99446.94;;;;-60
2020/10/26 13:35:44;;;;;;;1.57;1.32;;;;;;;20.76;60.18;99445.77;;;;-60
2020/10/26 13:38:44;;;;;;;3.35;1.18;;;;;;;20.78;60.26;99441.59;;;;-58
2020/10/26 13:41:44;;;;;;;1.99;1.20;;;;;;;20.79;60.23;99441.73;;;;-54
2020/10/26 13:44:44;;;;;;;1.47;1.20;;;;;;;20.81;60.41;99436.72;;;;-58
2020/10/26 13:47:44;;;;;;;2.26;1.19;;;;;;;20.83;60.27;99432.53;;;;-61
2020/10/26 13:50:43;;;;;;;1.25;1.10;;;;;;;20.85;60.31;99433.64;;;;-62
2020/10/26 13:53:44;;;;;;;1.12;1.07;;;;;;;20.86;60.32;99432.36;;;;-59
2020/10/26 13:56:44;;;;;;;1.30;1.18;;;;;;;20.88;60.52;99436.14;;;;-59
2020/10/26 13:59:44;;;;;;;1.63;1.17;;;;;;;20.89;60.47;99452.22;;;;-61
2020/10/26 14:02:44;;;;;;;2.18;1.23;;;;;;;20.91;60.46;99466.13;;;;-61
2020/10/26 14:05:44;;;;;;;2.47;1.29;;;;;;;20.93;60.18;99465.28;;;;-61
2020/10/26 14:08:44;;;;;;;1.29;1.19;;;;;;;20.93;60.10;99463.91;;;;-61
2020/10/26 14:11:44;;;;;;;1.73;1.10;;;;;;;20.93;60.02;99457.15;;;;-60
2020/10/26 14:14:44;;;;;;;1.03;1.01;;;;;;;20.94;59.90;99453.41;;;;-60
2020/10/26 14:17:44;;;;;;;1.22;1.12;;;;;;;20.93;59.89;99452.42;;;;-61
2020/10/26 14:20:44;;;;;;;1.11;1.03;;;;;;;20.93;59.86;99457.48;;;;-61
2020/10/26 14:23:44;;;;;;;1.33;1.14;;;;;;;20.93;59.82;99466.51;;;;-62
2020/10/26 14:26:44;;;;;;;1.20;1.10;;;;;;;20.93;59.79;99470.16;;;;-61
2020/10/26 14:29:44;;;;;;;2.19;1.10;;;;;;;20.94;59.83;99477.41;;;;-60
2020/10/26 14:32:44;;;;;;;3.07;1.22;;;;;;;20.93;59.84;99477.27;;;;-60
2020/10/26 14:35:44;;;;;;;1.38;1.10;;;;;;;20.93;59.74;99469.60;;;;-60
2020/10/26 14:38:44;;;;;;;1.19;1.14;;;;;;;20.94;59.74;99467.95;;;;-62
2020/10/26 14:41:44;;;;;;;1.20;1.10;;;;;;;20.93;59.71;99472.12;;;;-61
2020/10/26 14:44:44;;;;;;;2.45;1.21;;;;;;;20.95;59.92;99471.38;;;;-59
2020/10/26 14:47:44;;;;;;;6.06;1.31;;;;;;;20.94;60.11;99466.09;;;;-58
2020/10/26 14:50:44;;;;;;;5.53;1.69;;;;;;;20.97;60.14;99461.63;;;;-60
2020/10/26 14:53:44;;;;;;;4.37;1.61;;;;;;;20.98;60.24;99453.25;;;;-58
2020/10/26 14:56:44;;;;;;;4.05;1.61;;;;;;;20.98;59.98;99447.80;;;;-60
2020/10/26 14:59:44;;;;;;;8.53;1.63;;;;;;;20.97;59.83;99451.53;;;;-59
2020/10/26 15:02:44;;;;;;;5.15;1.53;;;;;;;20.95;59.81;99451.08;;;;-58
2020/10/26 15:05:44;;;;;;;4.84;1.41;;;;;;;20.95;59.73;99443.42;;;;-58
2020/10/26 15:08:44;;;;;;;4.25;1.61;;;;;;;20.94;59.75;99427.48;;;;-59
2020/10/26 15:11:44;;;;;;;5.25;1.45;;;;;;;20.94;59.63;99422.52;;;;-58
2020/10/26 15:14:43;;;;;;;3.49;1.65;;;;;;;20.93;59.79;99424.08;;;;-57
2020/10/26 15:17:44;;;;;;;6.58;1.73;;;;;;;20.95;60.05;99432.03;;;;-56
2020/10/26 15:20:44;;;;;;;5.25;1.77;;;;;;;20.99;60.19;99442.80;;;;-60
2020/10/26 15:23:44;;;;;;;6.79;1.69;;;;;;;21.00;59.89;99459.87;;;;-59
2020/10/26 15:26:44;;;;;;;9.15;1.60;;;;;;;21.00;59.87;99469.27;;;;-59
2020/10/26 15:29:44;;;;;;;10.51;1.87;;;;;;;21.01;59.84;99469.42;;;;-58
2020/10/26 15:32:44;;;;;;;5.01;1.51;;;;;;;21.01;59.83;99466.14;;;;-58
2020/10/26 15:35:43;;;;;;;8.67;1.67;;;;;;;21.00;59.95;99462.97;;;;-57
2020/10/26 15:38:44;;;;;;;10.43;1.69;;;;;;;20.98;59.68;99462.63;;;;-59
2020/10/26 15:41:44;;;;;;;9.06;1.61;;;;;;;20.99;59.40;99472.20;;;;-58
2020/10/26 15:44:44;;;;;;;7.25;1.70;;;;;;;20.99;59.46;99471.62;;;;-58
2020/10/26 15:47:43;;;;;;;5.31;1.69;;;;;;;21.00;59.55;99475.68;;;;-58
2020/10/26 15:50:44;;;;;;;3.36;1.55;;;;;;;21.00;59.59;99471.72;;;;-58
2020/10/26 15:53:44;;;;;;;3.97;1.40;;;;;;;21.00;59.58;99468.04;;;;-59
2020/10/26 15:56:43;;;;;;;5.21;1.56;;;;;;;21.00;59.59;99463.79;;;;-58
2020/10/26 15:59:44;;;;;;;2.77;1.39;;;;;;;21.00;59.60;99460.05;;;;-58
2020/10/26 16:02:44;;;;;;;6.11;1.51;;;;;;;21.00;59.58;99463.16;;;;-58
2020/10/26 16:05:43;;;;;;;3.93;1.51;;;;;;;21.01;59.60;99462.97;;;;-59
2020/10/26 16:08:44;;;;;;;3.65;1.49;;;;;;;21.01;59.58;99465.58;;;;-60
2020/10/26 16:11:44;;;;;;;3.41;1.51;;;;;;;21.02;59.58;99465.31;;;;-58
2020/10/26 16:14:44;;;;;;;3.54;1.41;;;;;;;21.01;59.59;99470.70;;;;-59
2020/10/26 16:17:43;;;;;;;2.39;1.36;;;;;;;21.01;59.55;99472.98;;;;-58
2020/10/26 16:20:44;;;;;;;1.89;1.31;;;;;;;21.02;59.58;99484.61;;;;-60
2020/10/26 16:23:44;;;;;;;4.38;1.55;;;;;;;21.02;59.57;99475.66;;;;-58
2020/10/26 16:26:44;;;;;;;3.54;1.51;;;;;;;21.02;59.56;99463.69;;;;-58
2020/10/26 16:29:44;;;;;;;3.29;1.53;;;;;;;21.02;59.54;99460.98;;;;-58
2020/10/26 16:32:44;;;;;;;3.93;1.30;;;;;;;21.01;59.61;99453.59;;;;-60
2020/10/26 16:35:44;;;;;;;5.64;1.43;;;;;;;21.02;59.59;99462.20;;;;-57
2020/10/26 16:38:43;;;;;;;5.25;1.51;;;;;;;21.04;59.74;99473.73;;;;-65
2020/10/26 16:41:43;;;;;;;5.76;1.61;;;;;;;21.05;59.87;99471.63;;;;-55
2020/10/26 16:44:44;;;;;;;1.70;1.13;;;;;;;21.06;60.03;99469.72;;;;-58
2020/10/26 16:47:44;;;;;;;3.83;1.38;;;;;;;21.08;60.17;99467.17;;;;-60
2020/10/26 16:50:44;;;;;;;3.87;1.30;;;;;;;21.09;60.13;99470.34;;;;-58
2020/10/26 16:53:44;;;;;;;2.28;1.39;;;;;;;21.11;60.24;99476.42;;;;-55
2020/10/26 16:56:44;;;;;;;3.58;1.50;;;;;;;21.12;60.09;99482.00;;;;-60